sensor_id;sensor_type;location;lat;lon;timestamp;P1;durP1;ratioP1;P2;durP2;ratioP2
21138;SDS011;10727;43.600;1.444;2024-01-06T00:01:11;7.70;;;1.90;;
21138;SDS011;10727;43.600;1.444;2024-01-06T00:04:19;3.03;;;1.70;;
21138;SDS011;10727;43.600;1.444;2024-01-06T00:07:24;3.78;;;1.60;;
21138;SDS011;10727;43.600;1.444;2024-01-06T00:10:30;4.25;;;1.70;;
21138;SDS011;10727;43.600;1.444;2024-01-06T00:13:35;3.60;;;1.80;;
21138;SDS011;10727;43.600;1.444;2024-01-06T00:16:42;3.28;;;2.00;;
21138;SDS011;10727;43.600;1.444;2024-01-06T00:19:48;5.60;;;2.10;;
21138;SDS011;10727;43.600;1.444;2024-01-06T00:22:54;2.80;;;1.67;;
21138;SDS011;10727;43.600;1.444;2024-01-06T00:26:03;6.97;;;1.90;;
21138;SDS011;10727;43.600;1.444;2024-01-06T00:29:08;5.38;;;2.28;;
21138;SDS011;10727;43.600;1.444;2024-01-06T00:32:15;3.60;;;1.80;;
21138;SDS011;10727;43.600;1.444;2024-01-06T00:35:21;6.18;;;1.80;;
21138;SDS011;10727;43.600;1.444;2024-01-06T00:38:27;5.18;;;2.17;;
21138;SDS011;10727;43.600;1.444;2024-01-06T00:41:32;2.83;;;1.75;;
21138;SDS011;10727;43.600;1.444;2024-01-06T00:44:38;4.03;;;2.10;;
21138;SDS011;10727;43.600;1.444;2024-01-06T00:47:44;7.78;;;2.00;;
21138;SDS011;10727;43.600;1.444;2024-01-06T00:50:50;3.83;;;1.70;;
21138;SDS011;10727;43.600;1.444;2024-01-06T00:53:55;6.60;;;2.30;;
21138;SDS011;10727;43.600;1.444;2024-01-06T00:57:00;3.45;;;1.88;;
21138;SDS011;10727;43.600;1.444;2024-01-06T01:00:06;3.05;;;1.88;;
21138;SDS011;10727;43.600;1.444;2024-01-06T01:03:13;3.35;;;2.00;;
21138;SDS011;10727;43.600;1.444;2024-01-06T01:06:19;4.80;;;2.15;;
21138;SDS011;10727;43.600;1.444;2024-01-06T01:09:24;5.20;;;2.10;;
21138;SDS011;10727;43.600;1.444;2024-01-06T01:12:30;6.78;;;1.98;;
21138;SDS011;10727;43.600;1.444;2024-01-06T01:15:35;3.20;;;2.05;;
21138;SDS011;10727;43.600;1.444;2024-01-06T01:18:42;5.63;;;2.17;;
21138;SDS011;10727;43.600;1.444;2024-01-06T01:21:47;7.18;;;2.20;;
21138;SDS011;10727;43.600;1.444;2024-01-06T01:24:53;3.75;;;1.90;;
21138;SDS011;10727;43.600;1.444;2024-01-06T01:27:58;6.30;;;2.20;;
21138;SDS011;10727;43.600;1.444;2024-01-06T01:31:04;4.20;;;1.70;;
21138;SDS011;10727;43.600;1.444;2024-01-06T01:34:10;8.45;;;2.13;;
21138;SDS011;10727;43.600;1.444;2024-01-06T01:37:16;5.57;;;2.10;;
21138;SDS011;10727;43.600;1.444;2024-01-06T01:40:21;4.22;;;1.92;;
21138;SDS011;10727;43.600;1.444;2024-01-06T01:43:26;3.92;;;1.92;;
21138;SDS011;10727;43.600;1.444;2024-01-06T01:46:32;4.88;;;2.25;;
21138;SDS011;10727;43.600;1.444;2024-01-06T01:49:39;4.90;;;1.95;;
21138;SDS011;10727;43.600;1.444;2024-01-06T01:52:44;6.70;;;2.15;;
21138;SDS011;10727;43.600;1.444;2024-01-06T01:55:49;8.93;;;2.80;;
21138;SDS011;10727;43.600;1.444;2024-01-06T01:58:55;5.65;;;1.90;;
21138;SDS011;10727;43.600;1.444;2024-01-06T02:02:01;5.82;;;1.73;;
21138;SDS011;10727;43.600;1.444;2024-01-06T02:05:08;4.55;;;1.60;;
21138;SDS011;10727;43.600;1.444;2024-01-06T02:08:14;3.88;;;1.83;;
21138;SDS011;10727;43.600;1.444;2024-01-06T02:11:20;4.43;;;1.60;;
21138;SDS011;10727;43.600;1.444;2024-01-06T02:14:25;5.65;;;1.83;;
21138;SDS011;10727;43.600;1.444;2024-01-06T02:17:30;5.72;;;1.85;;
21138;SDS011;10727;43.600;1.444;2024-01-06T02:20:37;8.38;;;2.28;;
21138;SDS011;10727;43.600;1.444;2024-01-06T02:23:44;4.35;;;1.90;;
21138;SDS011;10727;43.600;1.444;2024-01-06T02:26:49;5.78;;;2.00;;
21138;SDS011;10727;43.600;1.444;2024-01-06T02:29:55;3.53;;;2.20;;
21138;SDS011;10727;43.600;1.444;2024-01-06T02:33:00;4.47;;;2.00;;
21138;SDS011;10727;43.600;1.444;2024-01-06T02:36:06;5.15;;;2.17;;
21138;SDS011;10727;43.600;1.444;2024-01-06T02:39:13;7.63;;;1.90;;
21138;SDS011;10727;43.600;1.444;2024-01-06T02:42:18;3.70;;;1.92;;
21138;SDS011;10727;43.600;1.444;2024-01-06T02:45:23;7.50;;;1.92;;
21138;SDS011;10727;43.600;1.444;2024-01-06T02:48:28;5.38;;;2.08;;
21138;SDS011;10727;43.600;1.444;2024-01-06T02:51:34;4.72;;;2.00;;
21138;SDS011;10727;43.600;1.444;2024-01-06T02:54:41;3.22;;;1.85;;
21138;SDS011;10727;43.600;1.444;2024-01-06T02:57:46;2.45;;;1.80;;
21138;SDS011;10727;43.600;1.444;2024-01-06T03:00:51;4.43;;;1.88;;
21138;SDS011;10727;43.600;1.444;2024-01-06T03:03:57;5.47;;;1.70;;
21138;SDS011;10727;43.600;1.444;2024-01-06T03:07:02;4.80;;;1.80;;
21138;SDS011;10727;43.600;1.444;2024-01-06T03:10:09;5.10;;;2.00;;
21138;SDS011;10727;43.600;1.444;2024-01-06T03:13:15;3.42;;;2.00;;
21138;SDS011;10727;43.600;1.444;2024-01-06T03:16:20;4.47;;;1.85;;
21138;SDS011;10727;43.600;1.444;2024-01-06T03:19:25;4.35;;;1.75;;
21138;SDS011;10727;43.600;1.444;2024-01-06T03:22:31;5.80;;;1.88;;
21138;SDS011;10727;43.600;1.444;2024-01-06T03:25:37;6.53;;;2.10;;
21138;SDS011;10727;43.600;1.444;2024-01-06T03:28:43;4.35;;;1.90;;
21138;SDS011;10727;43.600;1.444;2024-01-06T03:31:48;4.82;;;1.80;;
21138;SDS011;10727;43.600;1.444;2024-01-06T03:34:54;6.30;;;1.70;;
21138;SDS011;10727;43.600;1.444;2024-01-06T03:37:59;5.35;;;1.60;;
21138;SDS011;10727;43.600;1.444;2024-01-06T03:41:05;5.22;;;2.03;;
21138;SDS011;10727;43.600;1.444;2024-01-06T03:44:11;4.57;;;1.90;;
21138;SDS011;10727;43.600;1.444;2024-01-06T03:47:16;5.38;;;2.17;;
21138;SDS011;10727;43.600;1.444;2024-01-06T03:50:22;5.55;;;1.73;;
21138;SDS011;10727;43.600;1.444;2024-01-06T03:53:27;2.92;;;1.50;;
21138;SDS011;10727;43.600;1.444;2024-01-06T03:56:33;6.45;;;1.73;;
21138;SDS011;10727;43.600;1.444;2024-01-06T03:59:39;5.82;;;1.77;;
21138;SDS011;10727;43.600;1.444;2024-01-06T04:02:44;3.60;;;1.65;;
21138;SDS011;10727;43.600;1.444;2024-01-06T04:05:50;3.70;;;1.70;;
21138;SDS011;10727;43.600;1.444;2024-01-06T04:08:55;2.85;;;1.70;;
21138;SDS011;10727;43.600;1.444;2024-01-06T04:12:02;4.20;;;1.60;;
21138;SDS011;10727;43.600;1.444;2024-01-06T04:15:07;3.45;;;1.70;;
21138;SDS011;10727;43.600;1.444;2024-01-06T04:18:13;6.47;;;1.60;;
21138;SDS011;10727;43.600;1.444;2024-01-06T04:21:18;7.90;;;1.73;;
21138;SDS011;10727;43.600;1.444;2024-01-06T04:24:24;4.78;;;1.67;;
21138;SDS011;10727;43.600;1.444;2024-01-06T04:27:31;7.00;;;1.80;;
21138;SDS011;10727;43.600;1.444;2024-01-06T04:30:37;5.15;;;1.70;;
21138;SDS011;10727;43.600;1.444;2024-01-06T04:33:42;3.35;;;1.70;;
21138;SDS011;10727;43.600;1.444;2024-01-06T04:36:48;2.40;;;1.65;;
21138;SDS011;10727;43.600;1.444;2024-01-06T04:39:53;5.03;;;1.90;;
21138;SDS011;10727;43.600;1.444;2024-01-06T04:43:00;6.88;;;2.00;;
21138;SDS011;10727;43.600;1.444;2024-01-06T04:46:06;5.00;;;1.70;;
21138;SDS011;10727;43.600;1.444;2024-01-06T04:49:11;5.38;;;1.75;;
21138;SDS011;10727;43.600;1.444;2024-01-06T04:52:16;5.05;;;1.80;;
21138;SDS011;10727;43.600;1.444;2024-01-06T04:55:21;7.57;;;2.00;;
21138;SDS011;10727;43.600;1.444;2024-01-06T04:58:28;4.85;;;1.85;;
21138;SDS011;10727;43.600;1.444;2024-01-06T05:01:34;6.10;;;1.65;;
21138;SDS011;10727;43.600;1.444;2024-01-06T05:04:39;7.72;;;1.77;;
21138;SDS011;10727;43.600;1.444;2024-01-06T05:07:45;5.30;;;1.90;;
21138;SDS011;10727;43.600;1.444;2024-01-06T05:10:51;9.20;;;2.05;;
21138;SDS011;10727;43.600;1.444;2024-01-06T05:13:59;5.97;;;1.92;;
21138;SDS011;10727;43.600;1.444;2024-01-06T05:17:04;4.18;;;2.13;;
21138;SDS011;10727;43.600;1.444;2024-01-06T05:20:10;5.53;;;2.20;;
21138;SDS011;10727;43.600;1.444;2024-01-06T05:23:15;3.97;;;1.83;;
21138;SDS011;10727;43.600;1.444;2024-01-06T05:26:20;4.32;;;1.92;;
21138;SDS011;10727;43.600;1.444;2024-01-06T05:29:27;4.38;;;1.70;;
21138;SDS011;10727;43.600;1.444;2024-01-06T05:32:32;5.10;;;2.20;;
21138;SDS011;10727;43.600;1.444;2024-01-06T05:35:37;9.60;;;2.22;;
21138;SDS011;10727;43.600;1.444;2024-01-06T05:38:42;5.93;;;2.15;;
21138;SDS011;10727;43.600;1.444;2024-01-06T05:41:47;4.95;;;2.00;;
21138;SDS011;10727;43.600;1.444;2024-01-06T05:44:55;3.47;;;1.75;;
21138;SDS011;10727;43.600;1.444;2024-01-06T05:48:00;6.30;;;1.92;;
21138;SDS011;10727;43.600;1.444;2024-01-06T05:51:05;7.57;;;2.20;;
21138;SDS011;10727;43.600;1.444;2024-01-06T05:54:10;6.50;;;1.88;;
21138;SDS011;10727;43.600;1.444;2024-01-06T05:57:16;4.88;;;2.20;;
21138;SDS011;10727;43.600;1.444;2024-01-06T06:00:23;6.97;;;2.20;;
21138;SDS011;10727;43.600;1.444;2024-01-06T06:03:28;6.82;;;2.35;;
21138;SDS011;10727;43.600;1.444;2024-01-06T06:06:33;5.25;;;1.80;;
21138;SDS011;10727;43.600;1.444;2024-01-06T06:09:39;4.93;;;2.15;;
21138;SDS011;10727;43.600;1.444;2024-01-06T06:12:44;4.93;;;2.20;;
21138;SDS011;10727;43.600;1.444;2024-01-06T06:15:51;5.95;;;2.13;;
21138;SDS011;10727;43.600;1.444;2024-01-06T06:18:56;4.65;;;2.00;;
21138;SDS011;10727;43.600;1.444;2024-01-06T06:22:01;4.57;;;1.90;;
21138;SDS011;10727;43.600;1.444;2024-01-06T06:25:07;5.35;;;2.00;;
21138;SDS011;10727;43.600;1.444;2024-01-06T06:28:12;4.45;;;1.88;;
21138;SDS011;10727;43.600;1.444;2024-01-06T06:31:19;4.32;;;1.95;;
21138;SDS011;10727;43.600;1.444;2024-01-06T06:34:24;4.03;;;1.67;;
21138;SDS011;10727;43.600;1.444;2024-01-06T06:37:29;5.63;;;2.17;;
21138;SDS011;10727;43.600;1.444;2024-01-06T06:40:35;4.22;;;1.58;;
21138;SDS011;10727;43.600;1.444;2024-01-06T06:43:41;6.32;;;1.65;;
21138;SDS011;10727;43.600;1.444;2024-01-06T06:46:47;4.68;;;2.00;;
21138;SDS011;10727;43.600;1.444;2024-01-06T06:49:52;5.65;;;1.88;;
21138;SDS011;10727;43.600;1.444;2024-01-06T06:52:58;4.53;;;2.00;;
21138;SDS011;10727;43.600;1.444;2024-01-06T06:56:04;1.85;;;1.50;;
21138;SDS011;10727;43.600;1.444;2024-01-06T06:59:10;3.38;;;1.45;;
21138;SDS011;10727;43.600;1.444;2024-01-06T07:02:16;4.57;;;1.85;;
21138;SDS011;10727;43.600;1.444;2024-01-06T07:05:22;3.97;;;1.55;;
21138;SDS011;10727;43.600;1.444;2024-01-06T07:08:27;3.60;;;1.50;;
21138;SDS011;10727;43.600;1.444;2024-01-06T07:11:32;3.53;;;1.58;;
21138;SDS011;10727;43.600;1.444;2024-01-06T07:14:38;6.35;;;1.50;;
21138;SDS011;10727;43.600;1.444;2024-01-06T07:17:45;2.88;;;1.30;;
21138;SDS011;10727;43.600;1.444;2024-01-06T07:20:51;3.67;;;1.63;;
21138;SDS011;10727;43.600;1.444;2024-01-06T07:23:56;3.00;;;1.60;;
21138;SDS011;10727;43.600;1.444;2024-01-06T07:27:01;2.60;;;1.60;;
21138;SDS011;10727;43.600;1.444;2024-01-06T07:30:07;3.08;;;1.60;;
21138;SDS011;10727;43.600;1.444;2024-01-06T07:33:14;1.95;;;1.20;;
21138;SDS011;10727;43.600;1.444;2024-01-06T07:36:19;1.45;;;1.15;;
21138;SDS011;10727;43.600;1.444;2024-01-06T07:39:25;3.80;;;1.42;;
21138;SDS011;10727;43.600;1.444;2024-01-06T07:42:30;3.03;;;1.10;;
21138;SDS011;10727;43.600;1.444;2024-01-06T07:45:36;2.40;;;1.40;;
21138;SDS011;10727;43.600;1.444;2024-01-06T07:48:44;4.22;;;1.10;;
21138;SDS011;10727;43.600;1.444;2024-01-06T07:51:49;2.75;;;1.45;;
21138;SDS011;10727;43.600;1.444;2024-01-06T07:54:55;2.25;;;1.40;;
21138;SDS011;10727;43.600;1.444;2024-01-06T07:58:00;2.15;;;1.42;;
21138;SDS011;10727;43.600;1.444;2024-01-06T08:01:06;2.33;;;1.10;;
21138;SDS011;10727;43.600;1.444;2024-01-06T08:04:13;1.45;;;1.10;;
21138;SDS011;10727;43.600;1.444;2024-01-06T08:07:18;1.95;;;1.00;;
21138;SDS011;10727;43.600;1.444;2024-01-06T08:10:24;1.10;;;1.00;;
21138;SDS011;10727;43.600;1.444;2024-01-06T08:13:29;2.20;;;1.10;;
21138;SDS011;10727;43.600;1.444;2024-01-06T08:16:34;2.92;;;1.27;;
21138;SDS011;10727;43.600;1.444;2024-01-06T08:19:41;2.33;;;1.40;;
21138;SDS011;10727;43.600;1.444;2024-01-06T08:22:50;2.85;;;2.00;;
21138;SDS011;10727;43.600;1.444;2024-01-06T08:25:55;1.40;;;1.00;;
21138;SDS011;10727;43.600;1.444;2024-01-06T08:29:00;1.20;;;0.98;;
21138;SDS011;10727;43.600;1.444;2024-01-06T08:32:06;2.03;;;1.00;;
21138;SDS011;10727;43.600;1.444;2024-01-06T08:35:14;1.80;;;1.20;;
21138;SDS011;10727;43.600;1.444;2024-01-06T08:38:20;2.20;;;1.10;;
21138;SDS011;10727;43.600;1.444;2024-01-06T08:41:26;3.78;;;1.42;;
21138;SDS011;10727;43.600;1.444;2024-01-06T08:44:31;1.33;;;1.13;;
21138;SDS011;10727;43.600;1.444;2024-01-06T08:47:37;3.55;;;1.30;;
21138;SDS011;10727;43.600;1.444;2024-01-06T08:50:44;4.57;;;1.38;;
21138;SDS011;10727;43.600;1.444;2024-01-06T08:53:49;13.13;;;7.57;;
21138;SDS011;10727;43.600;1.444;2024-01-06T08:56:55;21.88;;;14.38;;
21138;SDS011;10727;43.600;1.444;2024-01-06T09:00:00;22.73;;;15.32;;
21138;SDS011;10727;43.600;1.444;2024-01-06T09:03:06;7.72;;;4.57;;
21138;SDS011;10727;43.600;1.444;2024-01-06T09:06:14;5.00;;;2.75;;
21138;SDS011;10727;43.600;1.444;2024-01-06T09:09:19;3.70;;;2.30;;
21138;SDS011;10727;43.600;1.444;2024-01-06T09:12:26;3.50;;;2.20;;
21138;SDS011;10727;43.600;1.444;2024-01-06T09:15:32;2.58;;;1.50;;
21138;SDS011;10727;43.600;1.444;2024-01-06T09:18:38;9.38;;;4.00;;
21138;SDS011;10727;43.600;1.444;2024-01-06T09:21:44;3.70;;;1.90;;
21138;SDS011;10727;43.600;1.444;2024-01-06T09:24:52;3.80;;;1.38;;
21138;SDS011;10727;43.600;1.444;2024-01-06T09:27:58;3.30;;;1.33;;
21138;SDS011;10727;43.600;1.444;2024-01-06T09:31:04;1.65;;;0.88;;
21138;SDS011;10727;43.600;1.444;2024-01-06T09:34:09;1.58;;;1.10;;
21138;SDS011;10727;43.600;1.444;2024-01-06T09:37:16;2.60;;;1.25;;
21138;SDS011;10727;43.600;1.444;2024-01-06T09:40:23;3.25;;;1.30;;
21138;SDS011;10727;43.600;1.444;2024-01-06T09:43:28;3.10;;;1.67;;
21138;SDS011;10727;43.600;1.444;2024-01-06T09:46:34;5.30;;;2.13;;
21138;SDS011;10727;43.600;1.444;2024-01-06T09:49:40;3.42;;;1.40;;
21138;SDS011;10727;43.600;1.444;2024-01-06T09:52:48;4.03;;;1.55;;
21138;SDS011;10727;43.600;1.444;2024-01-06T09:55:56;6.80;;;2.40;;
21138;SDS011;10727;43.600;1.444;2024-01-06T09:59:02;4.38;;;2.58;;
21138;SDS011;10727;43.600;1.444;2024-01-06T10:02:07;5.45;;;2.30;;
21138;SDS011;10727;43.600;1.444;2024-01-06T10:05:13;5.25;;;2.08;;
21138;SDS011;10727;43.600;1.444;2024-01-06T10:08:20;3.05;;;1.60;;
21138;SDS011;10727;43.600;1.444;2024-01-06T10:11:26;3.80;;;1.73;;
21138;SDS011;10727;43.600;1.444;2024-01-06T10:14:31;5.53;;;1.70;;
21138;SDS011;10727;43.600;1.444;2024-01-06T10:17:36;3.78;;;1.70;;
21138;SDS011;10727;43.600;1.444;2024-01-06T10:20:43;4.35;;;1.58;;
21138;SDS011;10727;43.600;1.444;2024-01-06T10:23:50;3.90;;;1.70;;
21138;SDS011;10727;43.600;1.444;2024-01-06T10:26:55;4.70;;;1.80;;
21138;SDS011;10727;43.600;1.444;2024-01-06T10:30:00;4.15;;;1.70;;
21138;SDS011;10727;43.600;1.444;2024-01-06T10:33:08;4.43;;;1.98;;
21138;SDS011;10727;43.600;1.444;2024-01-06T10:36:14;4.28;;;1.90;;
21138;SDS011;10727;43.600;1.444;2024-01-06T10:39:20;5.80;;;2.10;;
21138;SDS011;10727;43.600;1.444;2024-01-06T10:42:25;3.45;;;1.75;;
21138;SDS011;10727;43.600;1.444;2024-01-06T10:45:33;4.50;;;1.83;;
21138;SDS011;10727;43.600;1.444;2024-01-06T10:48:39;6.72;;;1.70;;
21138;SDS011;10727;43.600;1.444;2024-01-06T10:51:47;5.43;;;2.20;;
21138;SDS011;10727;43.600;1.444;2024-01-06T10:54:55;3.38;;;1.92;;
21138;SDS011;10727;43.600;1.444;2024-01-06T10:58:01;2.83;;;1.50;;
21138;SDS011;10727;43.600;1.444;2024-01-06T11:01:06;3.90;;;1.48;;
21138;SDS011;10727;43.600;1.444;2024-01-06T11:04:12;3.38;;;1.48;;
21138;SDS011;10727;43.600;1.444;2024-01-06T11:07:17;3.10;;;1.60;;
21138;SDS011;10727;43.600;1.444;2024-01-06T11:10:25;4.07;;;1.75;;
21138;SDS011;10727;43.600;1.444;2024-01-06T11:13:31;2.55;;;1.52;;
21138;SDS011;10727;43.600;1.444;2024-01-06T11:16:37;5.22;;;1.60;;
21138;SDS011;10727;43.600;1.444;2024-01-06T11:19:43;3.40;;;1.67;;
21138;SDS011;10727;43.600;1.444;2024-01-06T11:23:16;3.88;;;1.60;;
21138;SDS011;10727;43.600;1.444;2024-01-06T11:26:23;4.93;;;1.80;;
21138;SDS011;10727;43.600;1.444;2024-01-06T11:29:28;6.15;;;2.03;;
21138;SDS011;10727;43.600;1.444;2024-01-06T11:32:35;4.57;;;1.88;;
21138;SDS011;10727;43.600;1.444;2024-01-06T11:35:41;2.80;;;2.05;;
21138;SDS011;10727;43.600;1.444;2024-01-06T11:38:52;3.22;;;1.80;;
21138;SDS011;10727;43.600;1.444;2024-01-06T11:41:59;4.50;;;1.77;;
21138;SDS011;10727;43.600;1.444;2024-01-06T11:45:05;4.53;;;1.48;;
21138;SDS011;10727;43.600;1.444;2024-01-06T11:48:11;3.67;;;2.15;;
21138;SDS011;10727;43.600;1.444;2024-01-06T11:51:17;4.20;;;1.80;;
21138;SDS011;10727;43.600;1.444;2024-01-06T11:54:22;6.53;;;2.05;;
21138;SDS011;10727;43.600;1.444;2024-01-06T11:57:29;5.50;;;2.10;;
21138;SDS011;10727;43.600;1.444;2024-01-06T12:00:34;4.47;;;2.22;;
21138;SDS011;10727;43.600;1.444;2024-01-06T12:03:42;4.53;;;2.03;;
21138;SDS011;10727;43.600;1.444;2024-01-06T12:06:47;5.70;;;2.30;;
21138;SDS011;10727;43.600;1.444;2024-01-06T12:10:00;5.82;;;2.35;;
21138;SDS011;10727;43.600;1.444;2024-01-06T12:13:07;3.53;;;1.73;;
21138;SDS011;10727;43.600;1.444;2024-01-06T12:16:13;3.70;;;1.90;;
21138;SDS011;10727;43.600;1.444;2024-01-06T12:19:18;1.65;;;1.38;;
21138;SDS011;10727;43.600;1.444;2024-01-06T12:22:24;7.35;;;4.07;;
21138;SDS011;10727;43.600;1.444;2024-01-06T12:25:30;5.95;;;2.35;;
21138;SDS011;10727;43.600;1.444;2024-01-06T12:28:39;3.78;;;1.65;;
21138;SDS011;10727;43.600;1.444;2024-01-06T12:31:46;3.17;;;1.90;;
21138;SDS011;10727;43.600;1.444;2024-01-06T12:34:51;5.63;;;1.80;;
21138;SDS011;10727;43.600;1.444;2024-01-06T12:37:57;3.70;;;1.75;;
21138;SDS011;10727;43.600;1.444;2024-01-06T12:41:02;3.10;;;1.80;;
21138;SDS011;10727;43.600;1.444;2024-01-06T12:44:08;3.33;;;1.70;;
21138;SDS011;10727;43.600;1.444;2024-01-06T12:47:14;2.35;;;1.55;;
21138;SDS011;10727;43.600;1.444;2024-01-06T12:50:19;3.75;;;1.95;;
21138;SDS011;10727;43.600;1.444;2024-01-06T12:53:24;5.03;;;1.52;;
21138;SDS011;10727;43.600;1.444;2024-01-06T12:56:30;2.58;;;1.42;;
21138;SDS011;10727;43.600;1.444;2024-01-06T12:59:37;2.40;;;1.30;;
21138;SDS011;10727;43.600;1.444;2024-01-06T13:02:42;2.90;;;1.70;;
21138;SDS011;10727;43.600;1.444;2024-01-06T13:05:47;3.38;;;1.73;;
21138;SDS011;10727;43.600;1.444;2024-01-06T13:08:52;3.03;;;1.73;;
21138;SDS011;10727;43.600;1.444;2024-01-06T13:11:58;4.68;;;1.83;;
21138;SDS011;10727;43.600;1.444;2024-01-06T13:15:07;4.28;;;1.70;;
21138;SDS011;10727;43.600;1.444;2024-01-06T13:18:14;2.67;;;1.65;;
21138;SDS011;10727;43.600;1.444;2024-01-06T13:21:20;2.85;;;1.50;;
21138;SDS011;10727;43.600;1.444;2024-01-06T13:24:27;3.13;;;1.83;;
21138;SDS011;10727;43.600;1.444;2024-01-06T13:27:32;2.78;;;1.80;;
21138;SDS011;10727;43.600;1.444;2024-01-06T13:30:39;3.95;;;1.92;;
21138;SDS011;10727;43.600;1.444;2024-01-06T13:33:44;3.92;;;2.13;;
21138;SDS011;10727;43.600;1.444;2024-01-06T13:36:50;3.58;;;2.20;;
21138;SDS011;10727;43.600;1.444;2024-01-06T13:39:56;2.67;;;1.80;;
21138;SDS011;10727;43.600;1.444;2024-01-06T13:43:02;4.35;;;1.85;;
21138;SDS011;10727;43.600;1.444;2024-01-06T13:46:09;4.15;;;1.90;;
21138;SDS011;10727;43.600;1.444;2024-01-06T13:49:16;2.95;;;1.70;;
21138;SDS011;10727;43.600;1.444;2024-01-06T13:52:22;2.60;;;1.48;;
21138;SDS011;10727;43.600;1.444;2024-01-06T13:55:27;3.63;;;1.95;;
21138;SDS011;10727;43.600;1.444;2024-01-06T13:58:33;5.63;;;2.40;;
21138;SDS011;10727;43.600;1.444;2024-01-06T14:01:40;5.85;;;2.55;;
21138;SDS011;10727;43.600;1.444;2024-01-06T14:04:45;5.05;;;2.75;;
21138;SDS011;10727;43.600;1.444;2024-01-06T14:07:51;3.17;;;2.13;;
21138;SDS011;10727;43.600;1.444;2024-01-06T14:10:56;5.70;;;2.70;;
21138;SDS011;10727;43.600;1.444;2024-01-06T14:14:01;5.25;;;2.88;;
21138;SDS011;10727;43.600;1.444;2024-01-06T14:17:09;5.80;;;3.03;;
21138;SDS011;10727;43.600;1.444;2024-01-06T14:20:14;7.05;;;3.22;;
21138;SDS011;10727;43.600;1.444;2024-01-06T14:23:20;4.85;;;2.35;;
21138;SDS011;10727;43.600;1.444;2024-01-06T14:26:27;4.72;;;1.80;;
21138;SDS011;10727;43.600;1.444;2024-01-06T14:29:34;7.18;;;1.92;;
21138;SDS011;10727;43.600;1.444;2024-01-06T14:32:41;3.05;;;1.80;;
21138;SDS011;10727;43.600;1.444;2024-01-06T14:35:46;3.08;;;1.60;;
21138;SDS011;10727;43.600;1.444;2024-01-06T14:38:51;4.55;;;1.80;;
21138;SDS011;10727;43.600;1.444;2024-01-06T14:41:57;1.95;;;1.60;;
21138;SDS011;10727;43.600;1.444;2024-01-06T14:45:03;2.95;;;1.83;;
21138;SDS011;10727;43.600;1.444;2024-01-06T14:48:13;3.20;;;1.83;;
21138;SDS011;10727;43.600;1.444;2024-01-06T14:51:18;2.92;;;1.70;;
21138;SDS011;10727;43.600;1.444;2024-01-06T14:54:23;4.60;;;1.73;;
21138;SDS011;10727;43.600;1.444;2024-01-06T14:57:29;3.15;;;1.58;;
21138;SDS011;10727;43.600;1.444;2024-01-06T15:00:34;3.03;;;1.85;;
21138;SDS011;10727;43.600;1.444;2024-01-06T15:03:41;4.10;;;2.00;;
21138;SDS011;10727;43.600;1.444;2024-01-06T15:06:47;4.85;;;1.98;;
21138;SDS011;10727;43.600;1.444;2024-01-06T15:09:52;3.60;;;1.75;;
21138;SDS011;10727;43.600;1.444;2024-01-06T15:12:58;2.05;;;1.50;;
21138;SDS011;10727;43.600;1.444;2024-01-06T15:16:04;3.78;;;1.90;;
21138;SDS011;10727;43.600;1.444;2024-01-06T15:19:11;1.63;;;1.20;;
21138;SDS011;10727;43.600;1.444;2024-01-06T15:22:16;3.15;;;1.20;;
21138;SDS011;10727;43.600;1.444;2024-01-06T15:25:21;3.00;;;1.55;;
21138;SDS011;10727;43.600;1.444;2024-01-06T15:28:28;2.42;;;1.45;;
21138;SDS011;10727;43.600;1.444;2024-01-06T15:31:34;3.10;;;1.63;;
21138;SDS011;10727;43.600;1.444;2024-01-06T15:34:41;2.67;;;1.40;;
21138;SDS011;10727;43.600;1.444;2024-01-06T15:37:47;3.63;;;1.52;;
21138;SDS011;10727;43.600;1.444;2024-01-06T15:40:52;4.25;;;1.98;;
21138;SDS011;10727;43.600;1.444;2024-01-06T15:43:58;3.60;;;1.60;;
21138;SDS011;10727;43.600;1.444;2024-01-06T15:47:04;4.70;;;1.95;;
21138;SDS011;10727;43.600;1.444;2024-01-06T15:50:11;4.07;;;1.88;;
21138;SDS011;10727;43.600;1.444;2024-01-06T15:53:16;4.57;;;1.80;;
21138;SDS011;10727;43.600;1.444;2024-01-06T15:56:22;5.47;;;2.10;;
21138;SDS011;10727;43.600;1.444;2024-01-06T15:59:27;3.45;;;1.67;;
21138;SDS011;10727;43.600;1.444;2024-01-06T16:02:33;7.78;;;1.95;;
21138;SDS011;10727;43.600;1.444;2024-01-06T16:05:40;4.03;;;2.05;;
21138;SDS011;10727;43.600;1.444;2024-01-06T16:08:46;5.40;;;1.80;;
21138;SDS011;10727;43.600;1.444;2024-01-06T16:11:51;4.80;;;1.95;;
21138;SDS011;10727;43.600;1.444;2024-01-06T16:14:59;4.35;;;2.05;;
21138;SDS011;10727;43.600;1.444;2024-01-06T16:18:04;6.03;;;2.10;;
21138;SDS011;10727;43.600;1.444;2024-01-06T16:21:11;4.90;;;2.53;;
21138;SDS011;10727;43.600;1.444;2024-01-06T16:24:25;5.68;;;2.22;;
21138;SDS011;10727;43.600;1.444;2024-01-06T16:27:32;4.63;;;2.10;;
21138;SDS011;10727;43.600;1.444;2024-01-06T16:30:38;4.57;;;2.10;;
21138;SDS011;10727;43.600;1.444;2024-01-06T16:33:43;5.78;;;2.20;;
21138;SDS011;10727;43.600;1.444;2024-01-06T16:36:50;4.97;;;2.30;;
21138;SDS011;10727;43.600;1.444;2024-01-06T16:39:55;4.38;;;1.85;;
21138;SDS011;10727;43.600;1.444;2024-01-06T16:43:00;3.38;;;1.88;;
21138;SDS011;10727;43.600;1.444;2024-01-06T16:46:06;3.75;;;2.05;;
21138;SDS011;10727;43.600;1.444;2024-01-06T16:49:12;5.55;;;2.05;;
21138;SDS011;10727;43.600;1.444;2024-01-06T16:52:18;3.55;;;1.80;;
21138;SDS011;10727;43.600;1.444;2024-01-06T16:55:24;6.60;;;1.98;;
21138;SDS011;10727;43.600;1.444;2024-01-06T16:58:29;6.85;;;2.45;;
21138;SDS011;10727;43.600;1.444;2024-01-06T17:01:35;5.40;;;2.38;;
21138;SDS011;10727;43.600;1.444;2024-01-06T17:04:40;2.92;;;1.77;;
21138;SDS011;10727;43.600;1.444;2024-01-06T17:07:47;4.25;;;2.10;;
21138;SDS011;10727;43.600;1.444;2024-01-06T17:10:52;4.13;;;1.70;;
21138;SDS011;10727;43.600;1.444;2024-01-06T17:13:58;2.50;;;1.60;;
21138;SDS011;10727;43.600;1.444;2024-01-06T17:17:04;3.38;;;1.42;;
21138;SDS011;10727;43.600;1.444;2024-01-06T17:20:09;2.03;;;1.55;;
21138;SDS011;10727;43.600;1.444;2024-01-06T17:23:17;3.60;;;1.30;;
21138;SDS011;10727;43.600;1.444;2024-01-06T17:26:23;2.83;;;1.40;;
21138;SDS011;10727;43.600;1.444;2024-01-06T17:29:31;2.45;;;1.52;;
21138;SDS011;10727;43.600;1.444;2024-01-06T17:32:36;5.15;;;1.58;;
21138;SDS011;10727;43.600;1.444;2024-01-06T17:35:42;4.40;;;2.00;;
21138;SDS011;10727;43.600;1.444;2024-01-06T17:38:50;4.05;;;1.95;;
21138;SDS011;10727;43.600;1.444;2024-01-06T17:41:55;3.80;;;1.83;;
21138;SDS011;10727;43.600;1.444;2024-01-06T17:45:01;4.07;;;2.10;;
21138;SDS011;10727;43.600;1.444;2024-01-06T17:48:07;3.67;;;1.77;;
21138;SDS011;10727;43.600;1.444;2024-01-06T17:51:13;4.15;;;1.80;;
21138;SDS011;10727;43.600;1.444;2024-01-06T17:54:20;4.85;;;2.05;;
21138;SDS011;10727;43.600;1.444;2024-01-06T17:57:26;4.88;;;2.25;;
21138;SDS011;10727;43.600;1.444;2024-01-06T18:00:37;6.80;;;4.43;;
21138;SDS011;10727;43.600;1.444;2024-01-06T18:03:43;5.05;;;2.38;;
21138;SDS011;10727;43.600;1.444;2024-01-06T18:06:49;4.70;;;1.73;;
21138;SDS011;10727;43.600;1.444;2024-01-06T18:09:56;6.93;;;2.10;;
21138;SDS011;10727;43.600;1.444;2024-01-06T18:13:02;5.15;;;1.85;;
21138;SDS011;10727;43.600;1.444;2024-01-06T18:16:07;4.05;;;1.98;;
21138;SDS011;10727;43.600;1.444;2024-01-06T18:19:13;3.95;;;1.90;;
21138;SDS011;10727;43.600;1.444;2024-01-06T18:22:19;6.60;;;2.28;;
21138;SDS011;10727;43.600;1.444;2024-01-06T18:25:26;8.18;;;2.55;;
21138;SDS011;10727;43.600;1.444;2024-01-06T18:28:32;3.97;;;2.20;;
21138;SDS011;10727;43.600;1.444;2024-01-06T18:31:38;5.10;;;2.17;;
21138;SDS011;10727;43.600;1.444;2024-01-06T18:34:43;4.22;;;2.22;;
21138;SDS011;10727;43.600;1.444;2024-01-06T18:37:49;6.35;;;2.40;;
21138;SDS011;10727;43.600;1.444;2024-01-06T18:40:55;5.53;;;2.60;;